Latest Weather Observations for Middle Point

IDD60901

Issued at 11:51 am CST Tuesday 21 November 2017 (issued every 10 minutes, with the page automatically refreshed every 10 minutes)

About weather observations | Map of Darwin area stations | Latest observations for Darwin area | Other Formats
Station Details ID: 014041 Name: MIDDLE POINT Lat: -12.61 Lon: 131.30 Height: 14.1 m
Data from the previous 72 hours. | See also: Recent months at Middle Point
Date/Time
CST
Temp
°C
App
Temp
°C
Dew
Point
°C
Rel
Hum
%
Delta-T
°C
Wind Press
QNH
hPa
Press
MSL
hPa
Rain since
9am
mm
Dir  Spd
km/h
Gust
km/h
Spd
kts
Gust
kts
21/11:30am 34.5 38.4 22.6 50 8.2 NE 6 17 3 9 1008.4 1008.3 0.0
21/11:00am 32.9 36.5 23.0 56 6.8 NW 9 17 5 9 1008.9 1008.8 0.0
21/10:30am 31.8 35.8 22.8 59 6.2 NNW 6 13 3 7 1009.3 1009.2 0.0
21/10:00am 32.7 37.9 23.6 58 6.3 ESE 2 7 1 4 1009.4 1009.3 0.0
21/09:30am 32.0 36.9 23.0 59 6.2 NE 2 7 1 4 1009.5 1009.4 0.0
21/09:00am 30.9 36.5 24.8 70 4.3 NNW 4 7 2 4 1009.3 1009.2 0.0
21/08:30am 30.0 35.1 24.6 73 3.8 NNW 6 9 3 5 1009.1 1009.0 0.0
21/08:00am 29.6 36.3 25.4 78 3.0 CALM 0 2 0 1 1008.8 1008.7 0.0
21/07:30am 27.7 34.5 25.5 88 1.6 CALM 0 0 0 0 1008.2 1008.1 0.0
21/07:00am 25.8 32.2 24.9 95 0.6 CALM 0 0 0 0 1007.7 1007.6 0.0
21/06:30am 24.6 30.3 23.7 95 0.6 CALM 0 0 0 0 1007.2 1007.1 0.0
21/06:00am 24.6 30.4 23.9 96 0.5 CALM 0 0 0 0 1006.8 1006.7 0.0
21/05:30am 24.6 30.2 23.6 94 0.7 CALM 0 0 0 0 1006.7 1006.6 0.0
21/05:00am 24.6 30.1 23.4 93 0.8 CALM 0 0 0 0 1006.4 1006.3 0.0
21/04:30am 24.3 29.6 23.1 93 0.8 CALM 0 0 0 0 1006.3 1006.2 0.0
21/04:00am 25.1 30.8 23.7 92 1.0 CALM 0 0 0 0 1006.4 1006.3 0.0
21/03:30am 25.5 31.5 24.3 93 0.8 CALM 0 0 0 0 1006.6 1006.5 0.0
21/03:00am 25.3 31.1 23.9 92 1.0 CALM 0 0 0 0 1006.7 1006.6 0.0
21/02:30am 25.1 29.9 23.5 91 1.1 WNW 4 4 2 2 1007.0 1006.9 0.0
21/02:00am 25.0 30.1 23.4 91 1.1 WNW 2 4 1 2 1007.4 1007.3 0.0
21/01:30am 25.1 29.9 23.5 91 1.1 WNW 4 4 2 2 1007.8 1007.7 0.0
21/01:00am 25.8 30.7 23.7 88 1.4 NW 4 6 2 3 1008.0 1007.9 0.0
21/12:30am 25.9 31.6 23.8 88 1.4 CALM 0 0 0 0 1008.4 1008.3 0.0
21/12:00am 25.7 30.4 23.4 87 1.6 WNW 4 6 2 3 1008.4 1008.3 0.0
 
Date/Time
CST
Temp
°C
App
Temp
°C
Dew
Point
°C
Rel
Hum
%
Delta-T
°C
Wind Press
QNH
hPa
Press
MSL
hPa
Rain since
9am
mm
Dir  Spd
km/h
Gust
km/h
Spd
kts
Gust
kts
20/11:30pm 26.0 30.9 23.7 87 1.6 NW 4 7 2 4 1008.6 1008.5 0.0
20/11:00pm 26.3 31.0 24.0 87 1.6 NNW 6 6 3 3 1008.5 1008.4 0.0
20/10:30pm 26.6 31.3 24.3 87 1.6 NNW 7 9 4 5 1008.0 1007.9 0.0
20/10:00pm 26.4 31.0 24.1 87 1.6 N 7 7 4 4 1007.9 1007.8 0.0
20/09:30pm 26.8 31.5 23.9 84 2.0 NNW 6 7 3 4 1008.0 1007.9 0.0
20/09:00pm 27.3 32.2 23.7 81 2.5 NNW 4 6 2 3 1007.7 1007.6 0.0
20/08:30pm 27.3 31.4 23.3 79 2.7 N 7 9 4 5 1007.2 1007.1 0.0
20/08:00pm 28.0 31.7 23.2 75 3.3 N 9 11 5 6 1006.9 1006.8 0.0
20/07:30pm 29.0 32.2 23.0 70 4.1 N 11 13 6 7 1006.7 1006.6 0.0
20/07:00pm 29.9 33.0 22.9 66 4.8 N 11 15 6 8 1006.4 1006.3 0.0
20/06:30pm 30.9 34.0 23.5 64 5.1 N 13 17 7 9 1006.0 1005.9 0.0
20/06:00pm 31.7 33.8 23.8 63 5.5 N 19 24 10 13 1005.7 1005.6 0.0
20/05:30pm 32.8 35.2 24.3 61 6.0 NNE 19 26 10 14 1005.6 1005.5 0.0
20/05:00pm 33.6 36.1 24.8 60 6.2 NNE 20 28 11 15 1005.5 1005.4 0.0
20/04:30pm 34.2 36.2 24.5 57 6.8 NNE 22 32 12 17 1005.6 1005.5 0.0
20/04:00pm 34.9 37.8 24.5 54 7.3 NNE 17 24 9 13 1005.6 1005.5 0.0
20/03:30pm 35.2 38.3 23.5 50 8.2 NNE 13 20 7 11 1005.6 1005.5 0.0
20/03:00pm 35.5 38.2 22.1 45 9.2 N 11 19 6 10 1005.9 1005.8 0.0
20/02:30pm 36.0 38.7 22.2 45 9.5 NE 11 20 6 11 1006.3 1006.2 0.0
20/02:00pm 35.8 38.7 22.4 46 9.2 NE 11 20 6 11 1006.6 1006.5 0.0
20/01:30pm 35.6 37.8 21.8 44 9.5 NE 13 20 7 11 1006.9 1006.8 0.0
20/01:00pm 34.4 37.9 22.8 51 8.0 NE 9 17 5 9 1007.5 1007.4 0.0
20/12:30pm 34.8 38.3 22.8 49 8.3 NNE 9 17 5 9 1008.0 1007.9 0.0
20/12:00pm 33.9 37.3 22.7 52 7.7 NE 9 17 5 9 1008.5 1008.4 0.0
20/11:30am 34.0 37.6 23.7 55 7.2 E 11 20 6 11 1008.8 1008.7 0.0
20/11:00am 32.5 36.9 23.4 58 6.3 ESE 6 17 3 9 1009.3 1009.2 0.0
20/10:30am 31.6 35.4 24.0 64 5.3 S 11 19 6 10 1009.8 1009.7 0.0
20/10:00am 30.8 34.3 23.5 65 5.0 SSE 11 17 6 9 1009.8 1009.7 0.0
20/09:30am 30.6 33.8 23.0 64 5.2 SSE 11 15 6 8 1009.8 1009.7 0.0
20/09:00am 29.7 33.9 23.4 69 4.3 SE 7 11 4 6 1009.8 1009.7 0.0
20/08:30am 27.4 32.0 23.2 78 2.9 S 4 7 2 4 1009.9 1009.8 0.0
20/08:00am 26.5 30.4 23.0 81 2.4 SSE 7 9 4 5 1009.7 1009.6 0.0
20/07:30am 25.3 28.8 22.8 86 1.7 S 9 11 5 6 1009.3 1009.2 0.0
20/07:00am 24.6 28.6 22.8 90 1.2 S 6 7 3 4 1009.3 1009.2 0.0
20/06:30am 24.1 27.9 22.7 92 0.9 S 7 11 4 6 1009.4 1009.3 0.0
20/06:00am 23.8 26.5 22.2 91 1.1 SSE 11 15 6 8 1009.2 1009.1 0.0
20/05:30am 23.8 26.9 22.2 91 1.1 SSE 9 11 5 6 1008.7 1008.6 0.0
20/05:00am 23.7 27.4 22.3 92 0.9 SE 6 9 3 5 1008.3 1008.2 0.0
20/04:30am 23.6 27.0 22.0 91 1.1 E 7 9 4 5 1007.9 1007.8 0.0
20/04:00am 23.9 27.2 21.8 88 1.4 SSE 7 9 4 5 1007.7 1007.6 0.0
20/03:30am 24.1 27.6 21.8 87 1.5 SSW 6 9 3 5 1007.7 1007.6 0.0
20/03:00am 23.8 27.0 21.7 88 1.4 SSW 7 9 4 5 1007.7 1007.6 0.0
20/02:30am 23.9 26.7 21.6 87 1.5 S 9 13 5 7 1007.9 1007.8 0.0
20/02:00am 24.2 27.7 21.9 87 1.5 ESE 6 7 3 4 1008.1 1008.0 0.0
20/01:30am 24.1 27.4 21.8 87 1.5 WNW 7 7 4 4 1008.3 1008.2 0.0
20/01:00am 24.6 28.9 21.9 85 1.8 SW 2 6 1 3 1008.9 1008.8 0.0
20/12:30am 24.7 29.2 21.6 83 2.1 CALM 0 6 0 3 1009.6 1009.5 0.0
20/12:00am 24.6 28.0 21.7 84 1.9 W 6 9 3 5 1009.8 1009.7 0.0
 
Date/Time
CST
Temp
°C
App
Temp
°C
Dew
Point
°C
Rel
Hum
%
Delta-T
°C
Wind Press
QNH
hPa
Press
MSL
hPa
Rain since
9am
mm
Dir  Spd
km/h
Gust
km/h
Spd
kts
Gust
kts
19/11:30pm 24.5 27.8 21.4 83 2.1 N 6 9 3 5 1010.1 1010.0 0.0
19/11:00pm 24.6 25.6 21.1 81 2.3 NNE 17 22 9 12 1010.5 1010.4 0.0
19/10:30pm 24.8 25.9 21.9 84 1.9 NE 19 26 10 14 1010.1 1010.0 0.0
19/10:00pm 25.6 27.9 22.1 81 2.3 E 13 20 7 11 1010.5 1010.4 0.0
19/09:30pm 26.5 27.5 22.8 80 2.5 SE 22 32 12 17 1010.2 1010.1 0.0
19/09:00pm 27.6 29.3 23.0 76 3.1 ESE 19 33 10 18 1010.1 1010.0 0.0
19/08:30pm 28.9 34.2 25.3 81 2.5 E 7 7 4 4 1009.4 1009.3 0.0
19/08:00pm 29.1 34.5 25.1 79 2.8 NNE 6 7 3 4 1008.3 1008.2 0.0
19/07:30pm 29.5 34.6 25.0 77 3.2 NE 7 9 4 5 1007.8 1007.7 0.0
19/07:00pm 29.9 34.3 24.5 73 3.8 NE 9 13 5 7 1007.2 1007.1 0.0
19/06:30pm 30.8 34.9 24.0 67 4.7 NE 9 13 5 7 1006.8 1006.7 0.0
19/06:00pm 31.3 34.7 23.4 63 5.5 N 11 15 6 8 1006.3 1006.2 0.0
19/05:30pm 31.7 35.0 23.2 60 5.9 N 11 17 6 9 1005.9 1005.8 0.0
19/05:00pm 32.0 34.4 23.0 59 6.2 N 15 22 8 12 1005.9 1005.8 0.0
19/04:30pm 32.7 34.5 23.3 57 6.5 N 19 24 10 13 1005.8 1005.7 0.0
19/04:00pm 33.6 35.3 23.0 54 7.3 N 19 28 10 15 1005.9 1005.8 0.0
19/03:30pm 34.3 35.4 23.0 51 7.8 N 22 32 12 17 1006.1 1006.0 0.0
19/03:00pm 34.5 35.9 22.9 51 8.0 N 20 32 11 17 1006.2 1006.1 0.0
19/02:30pm 35.0 37.4 23.7 52 7.9 NNE 17 26 9 14 1006.6 1006.5 0.0
19/02:00pm 34.8 36.7 23.5 52 7.9 N 19 28 10 15 1007.0 1006.9 0.0
19/01:30pm 34.5 36.4 23.5 52 7.7 NNE 19 30 10 16 1007.5 1007.4 0.0
19/01:00pm 34.5 35.9 22.9 51 8.0 NNE 20 32 11 17 1008.0 1007.9 0.0
19/12:30pm 33.7 35.7 24.0 57 6.8 N 20 32 11 17 1008.3 1008.2 0.0
19/12:00pm 33.2 35.7 23.2 55 6.9 NNE 15 24 8 13 1008.8 1008.7 0.0
19/11:30am 32.4 35.1 23.4 59 6.2 N 15 22 8 12 1009.0 1008.9 0.0
19/11:00am 32.6 35.8 24.4 62 5.8 N 15 20 8 11 1009.2 1009.1 0.0
19/10:30am 33.5 36.8 23.8 57 6.8 NE 13 19 7 10 1009.5 1009.4 0.0
19/10:00am 32.3 35.6 23.8 61 5.9 NE 13 20 7 11 1009.7 1009.6 0.0
19/09:30am 31.7 35.7 25.1 68 4.7 NE 13 20 7 11 1009.5 1009.4 0.0
19/09:00am 30.7 34.9 24.8 71 4.1 NE 11 20 6 11 1009.3 1009.2 0.0
19/08:30am 29.9 35.2 25.0 75 3.4 E 6 11 3 6 1009.3 1009.2 0.0
19/08:00am 28.4 33.5 24.6 80 2.6 ESE 6 9 3 5 1009.2 1009.1 0.0
19/07:30am 27.3 32.2 24.4 84 2.0 ESE 6 9 3 5 1009.0 1008.9 0.0
19/07:00am 24.9 30.5 24.2 96 0.5 S 2 2 1 1 1008.6 1008.5 0.0
19/06:30am 24.1 29.6 23.4 96 0.5 CALM 0 0 0 0 1008.3 1008.2 0.0
19/06:00am 24.2 29.8 23.5 96 0.5 CALM 0 0 0 0 1007.9 1007.8 0.0
19/05:30am 23.9 29.3 23.2 96 0.5 CALM 0 0 0 0 1007.6 1007.5 0.0
19/05:00am 24.2 29.6 23.2 94 0.7 CALM 0 0 0 0 1007.6 1007.5 0.0
19/04:30am 24.7 30.4 23.7 94 0.7 CALM 0 0 0 0 1007.4 1007.3 0.0
19/04:00am 24.5 30.1 23.5 94 0.7 CALM 0 0 0 0 1007.6 1007.5 0.0
19/03:30am 25.0 30.8 24.0 94 0.7 CALM 0 0 0 0 1007.7 1007.6 0.0
19/03:00am 24.8 29.9 23.4 92 1.0 S 2 2 1 1 1007.5 1007.4 0.0
19/02:30am 25.1 30.0 23.7 92 1.0 S 4 6 2 3 1008.0 1007.9 0.0
19/02:00am 25.0 30.5 23.4 91 1.1 CALM 0 0 0 0 1008.2 1008.1 0.0
19/01:30am 25.0 29.4 23.4 91 1.1 S 6 6 3 3 1008.6 1008.5 0.0
19/01:00am 25.3 30.2 23.7 91 1.1 S 4 4 2 2 1008.7 1008.6 0.0
19/12:30am 24.7 29.5 23.5 93 0.8 WSW 4 6 2 3 1008.9 1008.8 0.0
19/12:00am 24.2 29.0 22.8 92 0.9 SE 2 4 1 2 1008.9 1008.8 0.0
 
Date/Time
CST
Temp
°C
App
Temp
°C
Dew
Point
°C
Rel
Hum
%
Delta-T
°C
Wind Press
QNH
hPa
Press
MSL
hPa
Rain since
9am
mm
Dir  Spd
km/h
Gust
km/h
Spd
kts
Gust
kts
18/11:30pm 24.6 28.7 23.0 91 1.1 SE 6 9 3 5 1009.3 1009.2 0.0
18/11:00pm 24.2 29.0 22.8 92 0.9 NW 2 4 1 2 1009.1 1009.0 0.0
18/10:30pm 24.5 28.5 22.8 90 1.1 ESE 6 7 3 4 1009.0 1008.9 0.0
18/10:00pm 25.0 29.5 22.9 88 1.4 ESE 4 4 2 2 1008.5 1008.4 0.0
18/09:30pm 25.0 30.2 22.9 88 1.4 CALM 0 0 0 0 1008.3 1008.2 0.0
18/09:00pm 24.9 29.6 22.6 87 1.5 SSW 2 6 1 3 1008.0 1007.9 0.0
18/08:30pm 25.1 29.6 23.0 88 1.4 WSW 4 6 2 3 1007.7 1007.6 0.0
18/08:00pm 25.0 29.2 22.5 86 1.7 N 4 6 2 3 1007.3 1007.2 0.0
18/07:30pm 24.9 28.7 22.4 86 1.7 N 6 7 3 4 1006.7 1006.6 0.0
18/07:00pm 25.5 29.1 22.4 83 2.1 N 7 9 4 5 1006.9 1006.8 0.0
18/06:30pm 26.2 27.5 22.3 79 2.6 NNE 19 26 10 14 1006.9 1006.8 0.0
18/06:00pm 27.6 28.4 22.5 74 3.5 NNE 22 32 12 17 1006.5 1006.4 0.0
18/05:30pm 29.8 29.6 22.0 63 5.3 NE 26 35 14 19 1006.2 1006.1 0.0
18/05:00pm 32.5 34.5 22.9 57 6.6 NE 17 24 9 13 1005.7 1005.6 0.0
18/04:30pm 33.0 34.8 24.2 60 6.2 NNE 22 32 12 17 1005.4 1005.3 0.0
18/04:00pm 33.2 35.0 23.5 56 6.7 NNE 20 32 11 17 1005.7 1005.6 0.0
18/03:30pm 33.5 35.3 23.5 55 7.0 N 20 30 11 16 1005.4 1005.3 0.0
18/03:00pm 33.6 35.3 23.0 54 7.3 N 19 24 10 13 1005.8 1005.7 0.0
18/02:30pm 32.1 35.0 24.4 63 5.4 N 17 26 9 14 1006.3 1006.2 0.0
18/02:00pm 33.3 36.4 24.2 59 6.4 N 15 26 8 14 1006.2 1006.1 0.0
18/01:30pm 34.6 37.4 23.0 51 8.0 NE 13 20 7 11 1006.7 1006.6 0.0
18/01:00pm 35.3 37.9 22.6 47 8.8 ENE 13 20 7 11 1007.2 1007.1 0.0
18/12:30pm 34.2 37.5 22.6 50 8.0 NE 9 19 5 10 1007.8 1007.7 0.0
18/12:00pm 34.9 37.3 22.9 49 8.3 ENE 15 24 8 13 1008.3 1008.2 0.0

Latest Capital City Observations: Canberra | Sydney | Melbourne | Brisbane | Adelaide | Perth | Hobart | Darwin

Other Formats:

Comma delimited format used in spreadsheet applications
http://www.bom.gov.au/fwo/IDD60901/IDD60901.95121.axf

JavaScript Object Notation format (JSON) in row-major order
http://www.bom.gov.au/fwo/IDD60901/IDD60901.95121.json